Fry, Arizona
Current Conditions -  °F | °C
As of 6:56 AM on Sunday 25 Jan 2015 (Local Time) from KFHU Reporting Station
Clear Clear  
Wind Chill:   Ceiling: Unl
Heat Index:   Visibility: 10mi
Dew Point: -8°   Wind: 3mph
Humidity: 40%   Direction: 90°E
Pressure: 30.16"   Gusts: NA
Location:  31.5289°N, 110.258°W
Report Text: KFHU 251356Z AUTO 09003KT 10SM CLR 04/M08 A3016 RMK AO2 SLP206 T00441083 $
Loading
Personal Weather Stations






























Interactive Weather Map New forecast layout! Learn more

10-Day Weather Forecast

Advertisements
Track Severe Weather on mobile